Aérodrome :
LOGIN :

S'inscrire | Disclaimer

   EN    FR    IT 

 










Légende :    VFR   VFR Marginal   IFR   IFR Intensif   IFR Très Intensif
Visi : 
Plafond : 
>= 8 km
>= 3000ft
5 à 8 km
1000 à 3000 ft
1500m à 5 km
500 à 1000 ft
800 à 1500m
200 à 500 ft
< 800m
< 200 ft
Symboles :   Orages  Brouillard  Fortes neiges  Fortes précipitations  Vent > 20 kt
SIGMETs :   Divers  Orages  Givrage  Turbulence  Onde Orograph.  Cendres Volcan.







- Altitude de l'aérodrome : 1708 ft
- Code IATA : SJJ


LQSA - Sarajevo

DERNIER METAR :
  • 221830Z 33004KT 6000 RA FEW020 BKN035 OVC050 11/10 Q1020 NOSIG

METARs EXPIRÉS :
  • 221800Z 31004KT 270V330 8000 RA SCT027 OVC036 12/12 Q1019 NOSIG
  • 221730Z 29005KT 260V320 9999 -RA SCT025 OVC040 12/11 Q1019 NOSIG
  • 221700Z 29007KT 260V320 9999 -RA SCT025 OVC040 12/12 Q1019 NOSIG
  • 221630Z 29005KT 9999 -RA SCT025 OVC040 12/12 Q1019 NOSIG
  • 221600Z 29004KT 260V330 8000 -RA SCT025 OVC040 13/12 Q1019 NOSIG

TAF TAF LQSA
Valide du 22 à 18h jusqu'au 23 à 18h UTC


221700Z 2218/2318 30006KT 9999 SCT025 BKN045 TX21/2313Z TN07/2303Z
TEMPO 2218/2303 5000 RA
PROB40 2302/2306 2000 BR BKN004
Pas de NOTAMs connus pour ce terrain.



MET'MAP, la Météo Aéronautique d'un coup d'oeil ! - Copyright ORBIFLY Décembre 2007 - Disclaimer

ORBIFLY MET'MAP TEAM :

Programmation & Développement : Alexandra Zaïnal
Conception & Développement : Baudouin d'Aumeries
Co-Programmation & Développement : Marc-Olivier Méhu
Soutien technique & logistique : Manuel Goepfert

Contact : metmap@orbifly.com




SOURCES & CREDITS :

   NOAA